Time;durP1;ratioP1;P1;durP2;ratioP2;P2;SDS_P1;SDS_P2;PMS_P1;PMS_P2;Temp;Humidity;BMP_temperature;BMP_pressure;BME280_temperature;BME280_humidity;BME280_pressure;Samples;Min_cycle;Max_cycle;Signal;HPM_P1;HPM_P2
2023/01/28 00:02:04;;;;;;;1.92;0.63;;;5.50;93.30;;;;;;5010879;28;20040;-83
2023/01/28 00:04:29;;;;;;;3.92;0.70;;;5.50;93.60;;;;;;5012216;28;20042;-82
2023/01/28 00:06:55;;;;;;;8.30;1.17;;;5.50;93.20;;;;;;5012138;28;20033;-82
2023/01/28 00:09:21;;;;;;;1.33;0.50;;;5.40;92.80;;;;;;5012717;28;20033;-81
2023/01/28 00:11:46;;;;;;;1.77;0.65;;;5.50;93.30;;;;;;5012623;28;20034;-80
2023/01/28 00:14:12;;;;;;;2.17;0.40;;;5.50;93.50;;;;;;5012367;28;20026;-82
2023/01/28 00:16:38;;;;;;;4.05;0.52;;;5.50;93.20;;;;;;5012107;28;20539;-82
2023/01/28 00:19:03;;;;;;;5.80;0.88;;;5.50;93.40;;;;;;5012878;28;20057;-82
2023/01/28 00:21:29;;;;;;;6.20;0.80;;;5.50;93.20;;;;;;5012382;28;20044;-81
2023/01/28 00:23:56;;;;;;;3.88;1.00;;;5.60;93.50;;;;;;5011933;28;20034;-81
2023/01/28 00:26:24;;;;;;;5.40;0.77;;;5.60;93.30;;;;;;5011420;28;20128;-82
2023/01/28 00:28:50;;;;;;;2.45;0.63;;;5.70;93.10;;;;;;5011659;28;20091;-80
2023/01/28 00:31:17;;;;;;;1.77;0.63;;;5.50;93.00;;;;;;5012262;28;20030;-82
2023/01/28 00:33:44;;;;;;;3.20;0.50;;;5.60;93.40;;;;;;5011882;28;20029;-81
2023/01/28 00:36:11;;;;;;;1.25;0.52;;;5.60;92.90;;;;;;5012021;28;20103;-82
2023/01/28 00:38:37;;;;;;;2.70;0.65;;;5.60;93.00;;;;;;5013080;28;20038;-82
2023/01/28 00:41:15;;;;;;;1.60;0.90;;;5.60;93.20;;;;;;5011146;28;20482;-83
2023/01/28 00:43:42;;;;;;;4.35;0.75;;;5.60;93.30;;;;;;5011529;28;20124;-82
2023/01/28 00:46:09;;;;;;;5.03;0.63;;;5.60;93.10;;;;;;5010498;28;20030;-84
2023/01/28 00:48:40;;;;;;;4.43;0.60;;;5.60;93.00;;;;;;5010530;28;20026;-83
2023/01/28 00:51:07;;;;;;;2.92;0.75;;;5.50;92.90;;;;;;5012079;28;20022;-83
2023/01/28 00:53:35;;;;;;;3.40;0.53;;;5.50;92.90;;;;;;5010238;28;20061;-83
2023/01/28 00:56:01;;;;;;;2.90;0.82;;;5.60;93.00;;;;;;5011084;28;20339;-82
2023/01/28 00:58:26;;;;;;;2.88;0.70;;;5.50;92.80;;;;;;5011121;28;20368;-80
2023/01/28 01:00:52;;;;;;;1.27;0.52;;;5.50;93.20;;;;;;5010256;28;20037;-80
2023/01/28 01:03:19;;;;;;;6.90;0.85;;;5.50;93.10;;;;;;5011678;28;20022;-81
2023/01/28 01:05:45;;;;;;;1.13;0.60;;;5.50;93.20;;;;;;5011077;28;20030;-80
2023/01/28 01:08:11;;;;;;;2.85;0.68;;;5.50;93.20;;;;;;5009976;28;20380;-81
2023/01/28 01:10:37;;;;;;;3.42;0.60;;;5.60;93.20;;;;;;5011079;28;20022;-82
2023/01/28 01:13:05;;;;;;;3.75;0.52;;;5.60;93.10;;;;;;5009862;28;20033;-83
2023/01/28 01:15:31;;;;;;;8.30;0.90;;;5.70;93.20;;;;;;5011356;28;20360;-83
2023/01/28 01:17:57;;;;;;;0.85;0.63;;;5.70;93.00;;;;;;5011067;28;20260;-81
2023/01/28 01:20:26;;;;;;;5.03;0.93;;;5.60;92.90;;;;;;5010991;28;20026;-82
2023/01/28 01:22:52;;;;;;;1.92;0.60;;;5.60;93.00;;;;;;5009797;28;20054;-83
2023/01/28 01:25:18;;;;;;;2.88;0.60;;;5.50;92.80;;;;;;5009686;28;20531;-83
2023/01/28 01:27:46;;;;;;;2.40;0.57;;;5.50;92.40;;;;;;5011316;28;20050;-82
2023/01/28 01:30:14;;;;;;;1.27;0.40;;;5.60;92.40;;;;;;5011251;28;20019;-82
2023/01/28 01:32:40;;;;;;;2.97;0.60;;;5.50;92.50;;;;;;5010838;28;20045;-82
2023/01/28 01:35:09;;;;;;;2.85;0.82;;;5.50;92.50;;;;;;5009912;28;20038;-83
2023/01/28 01:37:35;;;;;;;2.38;1.02;;;5.50;92.60;;;;;;5009707;28;20135;-82
2023/01/28 01:40:03;;;;;;;6.00;1.15;;;5.50;92.70;;;;;;5010805;28;20472;-81
2023/01/28 01:42:30;;;;;;;;;;;5.60;92.70;;;;;;5011696;28;20063;-82
2023/01/28 01:45:18;;;;;;;1.60;0.60;;;5.50;92.70;;;;;;5011336;28;19909;-81
2023/01/28 01:47:58;;;;;;;2.92;0.55;;;5.50;92.50;;;;;;5010892;28;20084;-80
2023/01/28 01:50:32;;;;;;;3.22;1.02;;;5.50;92.50;;;;;;5009421;28;20056;-81
2023/01/28 01:53:10;;;;;;;3.58;0.70;;;5.50;92.60;;;;;;5009427;28;20030;-81
2023/01/28 01:55:40;;;;;;;4.75;1.00;;;5.50;92.70;;;;;;5010750;28;20026;-81
2023/01/28 01:58:13;;;;;;;2.63;0.75;;;5.50;92.80;;;;;;5010742;28;20022;-81
2023/01/28 02:00:40;;;;;;;5.60;1.02;;;5.40;92.60;;;;;;5010426;28;20117;-81
2023/01/28 02:03:06;;;;;;;1.85;0.70;;;5.50;92.70;;;;;;5009718;28;20029;-80
2023/01/28 02:05:32;;;;;;;4.45;0.70;;;5.50;92.50;;;;;;5009299;28;20341;-81
2023/01/28 02:10:45;;;;;;;1.88;0.57;;;5.50;92.30;;;;;;5010074;28;20483;-81
2023/01/28 02:13:11;;;;;;;3.10;0.60;;;5.50;92.20;;;;;;5013112;28;20044;-81
2023/01/28 02:15:37;;;;;;;1.40;0.70;;;5.50;92.20;;;;;;5012660;28;20061;-81
2023/01/28 02:18:03;;;;;;;4.97;0.55;;;5.50;92.50;;;;;;5014454;28;20018;-82
2023/01/28 02:20:50;;;;;;;1.85;0.70;;;5.50;92.20;;;;;;5014027;28;20022;-80
2023/01/28 02:23:28;;;;;;;4.50;0.57;;;5.50;92.40;;;;;;5013657;28;20073;-80
2023/01/28 02:26:19;;;;;;;0.93;0.50;;;5.40;92.40;;;;;;5013513;28;20034;-81
2023/01/28 02:29:04;;;;;;;2.55;0.50;;;5.40;92.30;;;;;;5012660;28;20038;-79
2023/01/28 02:31:38;;;;;;;4.85;0.60;;;5.40;91.90;;;;;;5013554;28;20030;-81
2023/01/28 02:34:10;;;;;;;2.28;0.65;;;5.40;91.90;;;;;;5013539;28;20044;-80
2023/01/28 02:36:49;;;;;;;2.05;0.50;;;5.40;92.10;;;;;;4998716;28;20101;-80
2023/01/28 02:39:26;;;;;;;5.15;0.65;;;5.40;92.10;;;;;;4994143;28;20023;-80
2023/01/28 02:41:58;;;;;;;4.85;0.80;;;5.40;92.30;;;;;;4992513;28;20122;-81
2023/01/28 02:44:23;;;;;;;3.28;0.55;;;5.30;92.10;;;;;;4993384;28;20112;-81
2023/01/28 02:49:42;;;;;;;3.28;0.85;;;5.20;92.50;;;;;;4993682;28;20073;-80
2023/01/28 02:55:36;;;;;;;3.13;0.90;;;5.30;92.50;;;;;;4993735;28;20044;-80
2023/01/28 02:58:28;;;;;;;4.28;0.60;;;5.30;92.60;;;;;;4991340;28;20030;-81
2023/01/28 03:01:12;;;;;;;1.90;0.40;;;5.40;92.30;;;;;;4993478;28;20092;-80
2023/01/28 03:03:59;;;;;;;9.82;1.08;;;5.30;92.30;;;;;;4993024;28;20038;-81
2023/01/28 03:06:38;;;;;;;3.13;0.90;;;5.30;92.20;;;;;;4993908;28;20033;-81
2023/01/28 03:09:22;;;;;;;3.60;0.88;;;5.40;92.30;;;;;;4993338;28;20061;-81
2023/01/28 03:38:21;;;;;;;2.97;0.90;;;5.00;91.80;;;;;;4992598;28;20053;-81
2023/01/28 03:40:54;;;;;;;3.22;0.73;;;5.10;91.90;;;;;;4992914;28;20045;-81
2023/01/28 03:43:19;;;;;;;2.60;0.70;;;5.00;91.90;;;;;;4992561;28;20117;-81
2023/01/28 03:45:50;;;;;;;5.60;1.15;;;5.10;92.10;;;;;;4991602;28;20579;-81
2023/01/28 03:48:19;;;;;;;7.05;1.00;;;5.10;92.10;;;;;;4993242;28;20019;-81
2023/01/28 03:50:45;;;;;;;3.00;0.88;;;5.10;92.00;;;;;;4992616;28;20031;-83
2023/01/28 03:53:11;;;;;;;2.95;0.85;;;5.10;91.70;;;;;;4992080;28;20031;-80
2023/01/28 03:55:37;;;;;;;3.22;0.68;;;5.10;91.70;;;;;;4991449;28;20041;-80
2023/01/28 03:58:04;;;;;;;4.00;0.65;;;5.00;91.80;;;;;;4992299;28;20034;-81
2023/01/28 04:00:31;;;;;;;4.47;0.95;;;5.10;91.90;;;;;;4991506;28;20036;-80
2023/01/28 04:02:58;;;;;;;4.55;0.90;;;5.20;91.80;;;;;;4992497;28;20034;-79
2023/01/28 04:05:24;;;;;;;2.88;0.65;;;5.10;91.70;;;;;;4992328;28;20354;-80
2023/01/28 04:07:54;;;;;;;6.35;1.42;;;5.10;91.60;;;;;;4992382;28;20113;-79
2023/01/28 04:10:20;;;;;;;4.18;0.68;;;5.00;91.70;;;;;;4992058;28;20272;-81
2023/01/28 04:12:48;;;;;;;3.75;0.75;;;5.00;91.80;;;;;;4992285;28;20034;-81
2023/01/28 04:15:15;;;;;;;3.63;0.60;;;5.10;92.00;;;;;;4992723;28;20023;-81
2023/01/28 04:17:47;;;;;;;5.40;0.90;;;5.10;92.00;;;;;;4992016;28;20039;-80
2023/01/28 04:20:13;;;;;;;3.15;0.90;;;5.10;91.90;;;;;;4990877;28;20468;-80
2023/01/28 04:22:39;;;;;;;1.55;0.60;;;5.10;91.90;;;;;;4990923;28;20044;-82
2023/01/28 04:25:06;;;;;;;1.10;0.65;;;5.10;92.00;;;;;;4990932;28;20109;-80
2023/01/28 04:27:31;;;;;;;3.53;0.70;;;5.10;91.80;;;;;;4992169;28;20085;-81
2023/01/28 04:29:57;;;;;;;3.85;0.82;;;5.10;91.90;;;;;;4990910;28;20082;-82
2023/01/28 04:32:23;;;;;;;3.85;0.77;;;5.20;91.90;;;;;;4990670;28;20023;-80
2023/01/28 04:34:48;;;;;;;2.90;0.70;;;5.10;91.70;;;;;;4991451;28;20030;-80
2023/01/28 04:37:14;;;;;;;1.45;0.60;;;5.10;91.80;;;;;;4991259;28;20125;-81
2023/01/28 04:39:39;;;;;;;2.70;0.93;;;5.00;92.00;;;;;;4991681;28;20021;-80
2023/01/28 04:42:05;;;;;;;2.92;0.70;;;5.00;91.70;;;;;;4992556;28;20052;-82
2023/01/28 04:44:31;;;;;;;1.25;0.52;;;4.90;92.00;;;;;;4991579;28;20480;-81
2023/01/28 04:46:56;;;;;;;3.70;1.40;;;5.00;91.80;;;;;;4991633;28;20046;-82
2023/01/28 04:49:22;;;;;;;3.00;0.75;;;5.30;92.00;;;;;;4990575;28;20101;-80
2023/01/28 04:51:47;;;;;;;3.40;0.65;;;5.20;91.80;;;;;;4991550;28;20475;-81
2023/01/28 04:54:13;;;;;;;4.65;0.82;;;5.10;91.70;;;;;;4992239;28;20069;-80
2023/01/28 04:56:39;;;;;;;4.40;1.10;;;5.10;91.50;;;;;;4991684;28;20130;-81
2023/01/28 04:59:04;;;;;;;3.15;0.95;;;5.10;91.50;;;;;;4991877;28;20037;-81
2023/01/28 05:01:30;;;;;;;4.72;1.00;;;5.00;91.50;;;;;;4991684;28;20034;-81
2023/01/28 05:03:56;;;;;;;1.80;0.65;;;5.00;91.60;;;;;;4990381;28;20042;-80
2023/01/28 05:06:22;;;;;;;1.58;0.70;;;5.00;91.70;;;;;;4991227;28;20045;-82
2023/01/28 05:08:48;;;;;;;2.70;0.57;;;5.00;91.60;;;;;;4990474;28;20038;-82
2023/01/28 05:11:14;;;;;;;3.47;0.85;;;4.90;91.60;;;;;;4991703;28;20465;-81
2023/01/28 05:13:39;;;;;;;4.03;1.00;;;4.90;91.70;;;;;;4991632;28;20045;-81
2023/01/28 05:16:05;;;;;;;5.65;0.75;;;5.00;91.80;;;;;;4991670;28;20339;-81
2023/01/28 05:18:31;;;;;;;3.75;0.70;;;5.00;91.60;;;;;;4991896;28;20026;-81
2023/01/28 05:20:57;;;;;;;7.68;0.80;;;5.00;91.70;;;;;;4991386;28;20483;-82
2023/01/28 05:23:23;;;;;;;2.40;0.80;;;5.10;91.80;;;;;;4990261;28;20042;-81
2023/01/28 05:25:49;;;;;;;5.30;0.88;;;5.00;91.70;;;;;;4990591;28;20038;-82
2023/01/28 05:28:15;;;;;;;5.72;0.90;;;4.90;92.00;;;;;;4991442;28;20045;-81
2023/01/28 05:30:41;;;;;;;1.75;0.95;;;5.00;92.10;;;;;;4991527;28;20113;-81
2023/01/28 05:33:07;;;;;;;1.30;0.70;;;4.90;92.00;;;;;;4992033;28;20087;-81
2023/01/28 05:35:33;;;;;;;2.25;0.80;;;4.90;91.70;;;;;;4991389;28;20034;-81
2023/01/28 05:37:58;;;;;;;8.55;1.48;;;4.90;91.60;;;;;;4991296;28;20100;-81
2023/01/28 05:40:24;;;;;;;7.28;1.10;;;4.90;91.80;;;;;;4991310;28;20027;-82
2023/01/28 05:42:50;;;;;;;3.53;0.75;;;4.80;91.70;;;;;;4990931;28;20026;-82
2023/01/28 05:45:15;;;;;;;6.15;1.20;;;4.80;91.80;;;;;;4991496;28;20479;-81
2023/01/28 05:47:41;;;;;;;1.83;0.93;;;4.80;92.00;;;;;;4993406;28;20031;-82
2023/01/28 05:50:12;;;;;;;2.90;1.00;;;4.90;91.40;;;;;;4994745;28;20516;-81
2023/01/28 05:52:37;;;;;;;3.05;0.70;;;4.80;91.50;;;;;;4994651;28;20030;-80
2023/01/28 05:55:03;;;;;;;2.90;0.73;;;4.80;91.60;;;;;;4994803;28;20475;-81
2023/01/28 05:57:29;;;;;;;4.20;0.90;;;4.80;91.60;;;;;;4995099;28;20277;-79
2023/01/28 05:59:55;;;;;;;2.28;0.98;;;4.90;91.60;;;;;;4994564;28;20027;-80
2023/01/28 06:02:20;;;;;;;1.70;0.75;;;4.80;91.50;;;;;;4994449;28;20022;-80
2023/01/28 06:04:46;;;;;;;7.53;1.02;;;4.80;91.60;;;;;;4994572;28;20042;-80
2023/01/28 06:07:12;;;;;;;7.28;1.30;;;4.80;91.60;;;;;;4994389;28;20026;-80
2023/01/28 06:09:38;;;;;;;2.25;0.80;;;4.90;91.60;;;;;;4994161;28;20046;-80
2023/01/28 06:12:04;;;;;;;2.20;0.75;;;4.80;91.40;;;;;;4995103;28;20034;-81
2023/01/28 06:14:30;;;;;;;2.83;0.90;;;4.80;91.40;;;;;;4994456;28;20117;-81
2023/01/28 06:16:55;;;;;;;1.08;0.68;;;4.80;91.80;;;;;;4994159;28;20069;-81
2023/01/28 06:19:21;;;;;;;2.88;1.08;;;4.70;91.40;;;;;;4994332;28;20034;-81
2023/01/28 06:21:47;;;;;;;4.95;0.93;;;4.60;91.30;;;;;;4994142;28;20321;-80
2023/01/28 06:24:13;;;;;;;3.13;0.80;;;4.60;91.00;;;;;;4993728;28;20045;-80
2023/01/28 06:26:38;;;;;;;2.65;1.02;;;4.50;90.90;;;;;;4994133;28;20548;-80
2023/01/28 06:29:04;;;;;;;6.88;0.77;;;4.60;91.20;;;;;;4994413;28;20034;-80
2023/01/28 06:31:30;;;;;;;3.05;0.65;;;4.60;91.30;;;;;;4994518;28;20412;-81
2023/01/28 06:33:55;;;;;;;0.77;0.65;;;4.60;91.30;;;;;;4994002;28;20361;-81
2023/01/28 06:36:21;;;;;;;1.60;0.70;;;4.60;91.40;;;;;;4994783;28;20341;-81
2023/01/28 06:38:47;;;;;;;7.75;0.95;;;4.60;91.20;;;;;;4994132;28;20170;-82
2023/01/28 06:41:12;;;;;;;2.25;0.88;;;4.60;91.30;;;;;;4993991;28;20085;-81
2023/01/28 06:43:38;;;;;;;2.33;1.10;;;4.60;91.40;;;;;;4993877;28;20444;-81
2023/01/28 06:46:04;;;;;;;2.30;0.85;;;4.60;90.90;;;;;;4994070;28;20061;-81
2023/01/28 06:48:31;;;;;;;1.30;0.63;;;4.60;91.20;;;;;;4994373;28;20018;-79
2023/01/28 06:50:57;;;;;;;4.82;1.02;;;4.70;91.30;;;;;;4993482;28;20038;-82
2023/01/28 06:53:23;;;;;;;6.93;0.95;;;4.80;91.20;;;;;;4993528;28;20030;-82
2023/01/28 06:55:48;;;;;;;0.98;0.60;;;4.70;91.00;;;;;;4993421;28;20403;-80
2023/01/28 06:58:14;;;;;;;2.47;0.95;;;4.60;90.70;;;;;;4992351;28;20109;-81
2023/01/28 07:00:40;;;;;;;3.08;1.10;;;4.60;91.00;;;;;;4992442;28;20022;-81
2023/01/28 07:03:06;;;;;;;3.78;1.05;;;4.60;91.30;;;;;;4993736;28;20084;-81
2023/01/28 07:05:31;;;;;;;3.25;1.20;;;4.70;91.20;;;;;;4993546;28;20048;-81
2023/01/28 07:07:57;;;;;;;5.85;0.93;;;4.60;91.10;;;;;;4993444;28;20026;-80
2023/01/28 07:10:23;;;;;;;4.03;0.82;;;4.50;90.90;;;;;;4992530;28;20359;-82
2023/01/28 07:12:48;;;;;;;4.80;0.98;;;4.50;90.90;;;;;;4992282;28;20396;-81
2023/01/28 07:15:14;;;;;;;3.53;1.13;;;4.50;90.90;;;;;;4993788;28;20031;-80
2023/01/28 07:17:43;;;;;;;2.85;0.95;;;4.40;91.00;;;;;;4994055;28;20322;-80
2023/01/28 07:20:11;;;;;;;2.83;0.70;;;4.50;91.30;;;;;;4992954;28;20038;-77
2023/01/28 07:22:40;;;;;;;3.05;0.82;;;4.60;91.20;;;;;;4992974;28;20031;-79
2023/01/28 07:25:07;;;;;;;2.58;0.88;;;4.50;90.80;;;;;;4992327;28;20385;-80
2023/01/28 07:27:33;;;;;;;2.97;1.10;;;4.40;91.10;;;;;;4993782;28;20050;-78
2023/01/28 07:29:58;;;;;;;1.58;1.10;;;4.60;91.50;;;;;;4992945;28;20365;-78
2023/01/28 07:32:26;;;;;;;1.25;0.77;;;4.60;91.50;;;;;;4992961;28;20034;-77
2023/01/28 07:34:52;;;;;;;6.68;1.23;;;4.60;91.30;;;;;;4993055;28;20026;-78
2023/01/28 07:37:18;;;;;;;1.75;0.80;;;4.70;91.10;;;;;;4993107;28;20033;-78
2023/01/28 07:39:44;;;;;;;6.18;1.25;;;4.70;91.00;;;;;;4988896;28;20030;-77
2023/01/28 07:42:09;;;;;;;6.25;1.25;;;4.70;91.00;;;;;;4993491;28;20026;-78
2023/01/28 07:44:36;;;;;;;3.00;0.95;;;4.70;91.10;;;;;;4993110;28;20038;-77
2023/01/28 07:47:02;;;;;;;2.90;1.00;;;4.70;91.10;;;;;;4992970;28;20038;-80
2023/01/28 07:49:28;;;;;;;4.20;1.00;;;4.60;91.10;;;;;;4991729;28;20069;-80
2023/01/28 07:51:54;;;;;;;1.58;1.15;;;4.60;91.10;;;;;;4992841;28;20054;-80
2023/01/28 07:54:19;;;;;;;3.40;1.10;;;4.70;90.90;;;;;;4993200;28;20022;-79
2023/01/28 07:56:45;;;;;;;6.22;1.42;;;4.70;90.90;;;;;;4993182;28;20030;-78
2023/01/28 07:59:11;;;;;;;2.72;1.33;;;4.80;91.00;;;;;;4991419;28;20139;-79
2023/01/28 08:01:37;;;;;;;1.80;0.98;;;4.70;91.00;;;;;;4992594;28;20069;-79
2023/01/28 08:04:02;;;;;;;3.42;1.27;;;4.70;90.80;;;;;;4992242;28;20069;-78
2023/01/28 08:06:28;;;;;;;9.15;1.95;;;4.70;90.80;;;;;;4992852;28;20039;-82
2023/01/28 08:08:54;;;;;;;3.35;1.40;;;4.80;91.10;;;;;;4992045;28;20034;-77
2023/01/28 08:11:20;;;;;;;3.45;0.98;;;4.80;91.00;;;;;;4992120;28;20031;-77
2023/01/28 08:13:47;;;;;;;4.97;1.20;;;4.90;90.80;;;;;;4990938;28;20073;-78
2023/01/28 08:16:13;;;;;;;2.58;1.10;;;4.90;90.80;;;;;;4992370;28;20030;-79
2023/01/28 08:18:38;;;;;;;6.07;1.25;;;4.80;90.70;;;;;;4992499;28;20080;-80
2023/01/28 08:21:04;;;;;;;2.88;0.90;;;4.80;90.70;;;;;;4991782;28;20031;-78
2023/01/28 08:23:33;;;;;;;2.63;1.10;;;4.90;90.70;;;;;;4991136;28;20031;-80
2023/01/28 08:25:59;;;;;;;5.63;1.75;;;4.90;90.80;;;;;;4992547;28;20030;-79
2023/01/28 08:28:25;;;;;;;2.75;1.27;;;4.90;90.80;;;;;;4992168;28;20527;-80
2023/01/28 08:30:51;;;;;;;5.28;1.20;;;4.90;90.60;;;;;;4991775;28;20074;-78
2023/01/28 08:33:18;;;;;;;4.72;1.10;;;4.90;90.80;;;;;;4992643;28;20417;-79
2023/01/28 08:35:45;;;;;;;3.50;0.97;;;4.90;90.70;;;;;;4991962;28;20465;-79
2023/01/28 08:38:15;;;;;;;5.78;2.70;;;4.80;90.70;;;;;;4990537;28;20267;-76
2023/01/28 08:40:40;;;;;;;2.17;1.00;;;4.80;90.70;;;;;;4991997;28;20038;-79
2023/01/28 08:43:06;;;;;;;3.38;1.13;;;5.00;90.60;;;;;;4991995;28;20042;-76
2023/01/28 08:45:32;;;;;;;2.60;1.00;;;4.60;90.10;;;;;;4992006;28;20034;-76
2023/01/28 08:48:06;;;;;;;4.05;1.23;;;4.50;90.50;;;;;;4991780;28;20160;-77
2023/01/28 08:50:34;;;;;;;2.25;1.30;;;4.70;91.00;;;;;;4991604;28;20296;-77
2023/01/28 08:53:18;;;;;;;8.40;3.03;;;4.70;91.00;;;;;;4990090;28;20065;-80
2023/01/28 08:55:45;;;;;;;3.80;1.80;;;4.60;90.60;;;;;;4990462;28;20027;-78
2023/01/28 08:58:13;;;;;;;6.05;1.55;;;4.60;90.40;;;;;;4991657;28;20054;-79
2023/01/28 09:00:40;;;;;;;5.53;1.45;;;4.80;90.80;;;;;;4990515;28;20027;-77
2023/01/28 09:03:06;;;;;;;11.88;1.63;;;4.90;91.00;;;;;;4991080;28;20080;-76
2023/01/28 09:05:33;;;;;;;2.08;1.30;;;5.00;90.80;;;;;;4990872;28;20034;-79
2023/01/28 09:08:06;;;;;;;2.97;1.45;;;4.80;90.10;;;;;;4991018;28;20037;-79
2023/01/28 09:10:32;;;;;;;9.68;3.20;;;4.80;90.30;;;;;;4991186;28;20049;-78
2023/01/28 09:12:58;;;;;;;6.18;1.77;;;5.10;90.80;;;;;;4991220;28;20044;-77
2023/01/28 09:15:24;;;;;;;8.00;1.70;;;5.10;90.20;;;;;;4991508;28;20357;-75
2023/01/28 09:17:56;;;;;;;5.90;1.58;;;5.30;90.70;;;;;;4990055;28;20484;-78
2023/01/28 09:20:21;;;;;;;7.93;1.90;;;5.40;90.60;;;;;;4989876;28;20041;-79
2023/01/28 09:22:47;;;;;;;3.53;1.55;;;5.50;90.60;;;;;;4993494;28;20026;-81
2023/01/28 09:25:12;;;;;;;5.95;1.48;;;5.50;90.40;;;;;;4994964;28;20026;-78
2023/01/28 09:27:38;;;;;;;4.90;1.88;;;5.50;90.40;;;;;;4994835;28;20042;-77
2023/01/28 09:30:07;;;;;;;5.63;1.75;;;5.40;90.40;;;;;;4995451;28;20348;-76
2023/01/28 09:32:33;;;;;;;4.10;1.60;;;5.40;90.40;;;;;;4993784;28;20030;-75
2023/01/28 09:34:59;;;;;;;4.88;1.50;;;5.30;90.40;;;;;;4994287;28;20081;-73
2023/01/28 09:37:24;;;;;;;5.15;1.90;;;5.40;90.40;;;;;;4993309;28;20094;-76
2023/01/28 09:39:50;;;;;;;2.55;1.65;;;5.40;90.50;;;;;;4993550;28;20436;-76
2023/01/28 09:42:26;;;;;;;5.72;1.63;;;5.50;90.50;;;;;;4994220;28;20064;-78
2023/01/28 09:45:00;;;;;;;2.47;1.30;;;5.30;90.40;;;;;;4994017;28;20057;-77
2023/01/28 09:47:32;;;;;;;5.60;1.30;;;5.30;90.40;;;;;;4994161;28;20393;-78
2023/01/28 09:50:03;;;;;;;4.63;1.27;;;5.20;90.40;;;;;;4994075;28;20595;-75
2023/01/28 09:52:35;;;;;;;5.35;1.77;;;5.10;90.50;;;;;;4994370;28;20062;-79
2023/01/28 09:55:02;;;;;;;4.38;1.23;;;5.20;90.40;;;;;;4994433;28;20065;-79
2023/01/28 09:57:39;;;;;;;4.53;1.90;;;5.30;90.50;;;;;;4995051;28;20108;-78
2023/01/28 10:00:39;;;;;;;4.45;1.90;;;5.20;90.60;;;;;;4994876;28;20038;-78
2023/01/28 10:03:35;;;;;;;5.63;1.83;;;5.30;90.60;;;;;;4994692;28;20395;-77
2023/01/28 10:06:27;;;;;;;6.82;1.70;;;5.20;90.30;;;;;;4994411;28;20121;-78
2023/01/28 10:09:20;;;;;;;5.55;1.67;;;5.20;90.20;;;;;;4995222;28;20034;-81
2023/01/28 10:11:45;;;;;;;4.20;2.05;;;5.20;90.20;;;;;;4993437;28;20387;-79
2023/01/28 10:14:41;;;;;;;3.60;1.80;;;5.10;90.40;;;;;;4994271;28;20041;-77
2023/01/28 10:17:31;;;;;;;6.95;1.85;;;5.20;90.20;;;;;;4994286;28;20039;-77
2023/01/28 10:20:11;;;;;;;4.95;2.00;;;5.10;90.10;;;;;;4994585;28;20381;-79
2023/01/28 10:22:49;;;;;;;4.03;1.90;;;5.10;90.20;;;;;;4994441;28;20037;-80
2023/01/28 10:25:19;;;;;;;3.95;1.70;;;5.10;90.50;;;;;;4993471;28;20372;-76
2023/01/28 10:27:48;;;;;;;2.00;1.50;;;5.10;90.40;;;;;;4994219;28;20344;-78
2023/01/28 10:30:17;;;;;;;7.68;1.98;;;5.10;90.30;;;;;;4993765;28;20113;-80
2023/01/28 10:32:57;;;;;;;4.80;1.95;;;5.10;90.50;;;;;;4994267;28;20022;-79
2023/01/28 10:35:23;;;;;;;3.90;1.70;;;5.10;90.50;;;;;;4993212;28;20073;-79
2023/01/28 10:37:54;;;;;;;15.65;5.05;;;5.20;90.30;;;;;;4993865;28;20038;-76
2023/01/28 10:40:20;;;;;;;5.03;2.08;;;5.30;90.30;;;;;;4993865;28;20410;-75
2023/01/28 10:42:45;;;;;;;3.78;2.13;;;5.30;90.30;;;;;;4993919;28;20110;-78
2023/01/28 10:45:16;;;;;;;4.10;1.80;;;5.40;90.20;;;;;;4994599;28;20026;-79
2023/01/28 10:47:49;;;;;;;7.43;2.42;;;5.30;89.50;;;;;;4994116;28;20369;-79
2023/01/28 10:50:22;;;;;;;5.95;2.67;;;5.10;90.00;;;;;;4993725;28;20026;-81
2023/01/28 10:52:58;;;;;;;7.32;3.00;;;5.20;90.10;;;;;;4993497;28;20035;-79
2023/01/28 10:55:55;;;;;;;3.72;2.45;;;5.20;90.20;;;;;;4993645;28;20385;-78
2023/01/28 10:58:24;;;;;;;3.97;2.00;;;5.30;90.30;;;;;;4993384;28;20073;-80
2023/01/28 11:01:07;;;;;;;5.32;1.75;;;5.50;90.30;;;;;;4992715;28;20030;-80
2023/01/28 11:03:34;;;;;;;3.65;1.80;;;5.50;89.90;;;;;;4993808;28;20034;-81
2023/01/28 11:06:01;;;;;;;4.18;1.85;;;5.50;89.30;;;;;;4993872;28;20014;-78
2023/01/28 11:08:28;;;;;;;4.78;1.70;;;5.50;89.60;;;;;;4993220;28;20093;-78
2023/01/28 11:10:56;;;;;;;3.80;1.95;;;5.30;89.00;;;;;;4993054;28;20098;-79
2023/01/28 11:13:29;;;;;;;2.90;1.75;;;5.40;89.70;;;;;;4993265;28;20114;-79
2023/01/28 11:15:58;;;;;;;1.35;1.25;;;5.40;89.90;;;;;;4993036;28;20364;-74
2023/01/28 11:18:38;;;;;;;4.93;1.98;;;5.40;89.60;;;;;;4993370;28;20034;-75
2023/01/28 11:21:06;;;;;;;2.80;1.85;;;5.00;89.70;;;;;;4993194;28;20042;-76
2023/01/28 11:23:38;;;;;;;3.55;1.90;;;5.10;90.00;;;;;;4992780;28;20073;-73
2023/01/28 11:26:14;;;;;;;2.63;1.70;;;5.20;89.60;;;;;;4993075;28;20030;-78
2023/01/28 11:28:42;;;;;;;4.25;1.90;;;5.20;89.10;;;;;;4992909;28;20042;-78
2023/01/28 11:31:11;;;;;;;6.03;2.08;;;5.10;88.90;;;;;;4991976;28;20023;-80
2023/01/28 11:33:43;;;;;;;2.35;1.40;;;5.10;89.20;;;;;;4992202;28;20330;-78
2023/01/28 11:36:20;;;;;;;7.20;1.77;;;5.10;89.10;;;;;;4993338;28;20123;-76
2023/01/28 11:38:58;;;;;;;3.10;1.60;;;5.40;89.10;;;;;;4993411;28;20427;-74
2023/01/28 11:41:32;;;;;;;5.35;1.67;;;5.40;88.30;;;;;;4991716;28;20493;-78
2023/01/28 11:44:08;;;;;;;2.90;1.60;;;5.40;88.80;;;;;;4992037;28;20117;-80
2023/01/28 11:46:48;;;;;;;5.18;2.13;;;5.50;88.00;;;;;;4991514;28;20326;-80
2023/01/28 11:49:22;;;;;;;4.50;1.52;;;5.50;88.30;;;;;;4992272;28;20027;-74
2023/01/28 11:52:13;;;;;;;8.85;1.88;;;5.60;88.60;;;;;;4992084;28;20026;-78
2023/01/28 11:54:48;;;;;;;3.90;1.50;;;5.50;88.00;;;;;;4991951;28;20393;-77
2023/01/28 11:57:22;;;;;;;5.80;1.90;;;5.50;88.30;;;;;;4992806;28;20050;-77
2023/01/28 12:00:28;;;;;;;5.82;1.90;;;5.70;88.20;;;;;;4991115;28;20104;-78
2023/01/28 12:03:16;;;;;;;2.72;1.40;;;6.00;87.40;;;;;;4991932;28;20095;-75
2023/01/28 12:05:50;;;;;;;5.30;2.13;;;6.00;86.30;;;;;;4992261;28;20034;-77
2023/01/28 12:08:38;;;;;;;10.07;2.55;;;6.20;86.80;;;;;;4991739;28;20257;-78
2023/01/28 12:14:13;;;;;;;3.92;2.20;;;6.20;85.50;;;;;;4992256;28;20384;-83
2023/01/28 12:16:56;;;;;;;7.60;2.85;;;6.10;86.40;;;;;;4991882;28;20452;-79
2023/01/28 12:19:28;;;;;;;4.55;2.90;;;6.20;86.40;;;;;;4993527;28;20034;-84
2023/01/28 12:22:04;;;;;;;13.82;3.17;;;6.30;87.20;;;;;;4992300;28;25758;-91
2023/01/28 12:24:48;;;;;;;2.53;2.08;;;6.30;86.50;;;;;;4993291;28;20034;-83
2023/01/28 12:27:23;;;;;;;11.88;2.40;;;6.20;85.80;;;;;;4991704;28;20188;-83
2023/01/28 12:30:15;;;;;;;7.85;2.35;;;6.10;86.90;;;;;;4992419;28;20369;-80
2023/01/28 12:32:59;;;;;;;3.00;1.85;;;6.30;86.80;;;;;;4992753;28;20453;-85
2023/01/28 12:35:42;;;;;;;4.25;2.00;;;6.50;86.90;;;;;;4992992;28;20453;-85
2023/01/28 12:38:15;;;;;;;4.75;1.90;;;6.50;87.10;;;;;;4993052;28;20034;-87
2023/01/28 12:40:53;;;;;;;7.07;2.20;;;6.60;86.30;;;;;;4998038;28;20526;-88
2023/01/28 12:43:44;;;;;;;3.88;2.17;;;6.50;85.80;;;;;;4998812;28;20098;-87
2023/01/28 12:46:15;;;;;;;4.82;2.40;;;6.60;85.80;;;;;;5005700;28;20030;-88
2023/01/28 12:48:48;;;;;;;3.92;2.17;;;6.60;85.70;;;;;;4999799;28;20022;-87
2023/01/28 12:51:23;;;;;;;5.28;2.47;;;6.60;85.30;;;;;;4994856;28;20015;-84
2023/01/28 12:54:12;;;;;;;3.55;2.38;;;6.70;86.00;;;;;;4993579;28;20077;-89
2023/01/28 12:56:46;;;;;;;7.28;3.92;;;6.80;85.70;;;;;;4993090;28;20035;-88
2023/01/28 12:59:31;;;;;;;4.22;2.53;;;6.80;85.00;;;;;;4994845;28;20110;-88
2023/01/28 13:02:12;;;;;;;6.68;2.65;;;6.50;84.40;;;;;;4994979;28;20284;-89
2023/01/28 13:04:48;;;;;;;16.45;8.05;;;6.50;85.50;;;;;;4994854;28;20034;-83
2023/01/28 13:07:22;;;;;;;60.33;25.00;;;6.30;84.70;;;;;;4990988;28;20030;-83
2023/01/28 13:10:13;;;;;;;24.95;11.68;;;6.40;85.20;;;;;;4993607;28;20030;-88
2023/01/28 13:12:40;;;;;;;11.30;4.97;;;6.30;85.30;;;;;;4987749;28;20076;-82
2023/01/28 13:15:12;;;;;;;4.80;2.78;;;6.40;85.60;;;;;;4992138;28;20122;-78
2023/01/28 13:17:38;;;;;;;6.10;2.65;;;6.50;85.70;;;;;;4990123;28;20041;-78
2023/01/28 13:20:14;;;;;;;6.18;2.55;;;6.10;85.00;;;;;;4991369;28;20106;-79
2023/01/28 13:22:44;;;;;;;17.02;3.85;;;5.90;85.70;;;;;;4991228;28;20037;-77
2023/01/28 13:25:26;;;;;;;5.32;2.83;;;6.00;87.40;;;;;;4989908;28;20031;-78
2023/01/28 13:27:58;;;;;;;3.97;2.50;;;5.90;86.70;;;;;;4991012;28;20049;-80
2023/01/28 13:30:45;;;;;;;5.63;2.55;;;6.10;87.20;;;;;;4991598;28;20022;-78
2023/01/28 13:33:37;;;;;;;5.88;3.08;;;5.90;87.20;;;;;;4990003;28;20038;-75
2023/01/28 13:36:25;;;;;;;5.60;2.83;;;5.90;87.40;;;;;;4991472;28;20101;-77
2023/01/28 13:39:13;;;;;;;8.48;3.17;;;5.90;88.20;;;;;;4991146;28;20476;-77
2023/01/28 13:41:50;;;;;;;5.78;2.85;;;6.00;87.30;;;;;;4990571;28;20104;-81
2023/01/28 13:44:24;;;;;;;7.03;2.97;;;6.10;86.80;;;;;;4990213;28;20083;-75
2023/01/28 13:46:52;;;;;;;3.58;2.88;;;6.10;87.60;;;;;;4991418;28;20026;-81
2023/01/28 13:49:33;;;;;;;6.78;3.22;;;6.20;86.70;;;;;;4994331;28;20019;-78
2023/01/28 13:52:10;;;;;;;8.70;3.72;;;6.10;86.80;;;;;;4993948;28;20034;-82
2023/01/28 13:54:55;;;;;;;;;;;6.00;86.60;;;;;;4992411;28;20030;-78